createdAt,value
2019-04-30T00:00:22.065Z,13.40
2019-04-30T00:05:25.144Z,9.93
2019-04-30T00:10:35.411Z,12.43
2019-04-30T00:15:30.727Z,11.87
2019-04-30T00:20:37.049Z,15.03
2019-04-30T00:25:35.711Z,9.20
2019-04-30T00:30:39.258Z,9.47
2019-04-30T00:35:40.759Z,10.60
2019-04-30T00:40:42.290Z,15.13
2019-04-30T00:45:47.345Z,12.90
2019-04-30T00:50:47.447Z,10.43
2019-04-30T00:55:49.277Z,9.23
2019-04-30T01:00:50.858Z,10.80
2019-04-30T01:05:52.429Z,9.77
2019-04-30T01:10:55.631Z,10.53
2019-04-30T01:15:58.754Z,11.80
2019-04-30T01:21:02.931Z,12.10
2019-04-30T01:26:04.056Z,14.23
2019-04-30T01:31:06.063Z,13.23
2019-04-30T01:36:09.526Z,10.00
2019-04-30T01:41:11.063Z,9.40
2019-04-30T01:46:13.963Z,9.67
2019-04-30T01:51:20.335Z,10.57
2019-04-30T01:56:19.331Z,8.27
2019-04-30T02:01:20.896Z,10.87
2019-04-30T02:06:22.475Z,8.97
2019-04-30T02:11:24.379Z,7.90
2019-04-30T02:16:25.981Z,8.20
2019-04-30T02:21:27.561Z,12.50
2019-04-30T02:26:29.535Z,10.73
2019-04-30T02:31:31.129Z,11.00
2019-04-30T02:36:32.809Z,9.67
2019-04-30T02:41:35.114Z,14.67
2019-04-30T02:46:36.397Z,12.23
2019-04-30T02:51:39.994Z,13.53
2019-04-30T02:56:40.996Z,11.17
2019-04-30T03:01:42.320Z,14.87
2019-04-30T03:06:44.110Z,14.30
2019-04-30T03:11:45.464Z,14.40
2019-04-30T03:16:52.633Z,14.23
2019-04-30T03:21:50.501Z,14.23
2019-04-30T03:26:51.846Z,21.47
2019-04-30T03:31:53.231Z,23.97
2019-04-30T03:36:54.693Z,24.90
2019-04-30T03:41:56.045Z,21.60
2019-04-30T03:46:59.335Z,23.97
2019-04-30T03:52:00.951Z,25.23
2019-04-30T03:57:02.238Z,23.93
2019-04-30T04:02:03.715Z,25.47
2019-04-30T04:07:04.951Z,25.30
2019-04-30T04:12:06.465Z,26.90
2019-04-30T04:17:09.851Z,33.77
2019-04-30T04:22:12.266Z,28.13
2019-04-30T04:27:13.957Z,36.03
2019-04-30T04:32:15.225Z,32.48
2019-04-30T04:37:16.461Z,33.13
2019-04-30T04:42:19.388Z,37.73
2019-04-30T04:47:21.276Z,39.40
2019-04-30T04:52:23.019Z,39.97
2019-04-30T04:57:24.266Z,39.50
2019-04-30T05:02:25.637Z,38.00
2019-04-30T05:07:28.698Z,42.00
2019-04-30T05:12:30.570Z,38.77
2019-04-30T05:17:32.297Z,35.97
2019-04-30T05:22:33.767Z,36.53
2019-04-30T05:27:35.184Z,31.27
2019-04-30T05:32:36.417Z,31.93
2019-04-30T05:37:38.454Z,28.57
2019-04-30T05:42:39.999Z,31.07
2019-04-30T05:47:41.466Z,30.10
2019-04-30T05:52:42.844Z,29.50
2019-04-30T05:57:53.870Z,28.57
2019-04-30T06:02:49.526Z,25.50
2019-04-30T06:07:52.044Z,27.53
2019-04-30T06:12:53.972Z,26.43
2019-04-30T06:18:00.288Z,26.77
2019-04-30T06:22:59.652Z,28.70
2019-04-30T06:28:01.143Z,25.67
2019-04-30T06:33:02.950Z,27.97
2019-04-30T06:38:04.297Z,23.33
2019-04-30T06:43:05.862Z,29.13
2019-04-30T06:48:08.756Z,28.50
2019-04-30T06:53:10.244Z,32.50
2019-04-30T06:58:15.274Z,25.80
2019-04-30T07:03:15.183Z,27.30
2019-04-30T07:08:16.441Z,28.13
2019-04-30T07:13:18.788Z,29.27
2019-04-30T07:18:20.719Z,27.97
2019-04-30T07:23:22.191Z,29.33
2019-04-30T07:28:42.704Z,28.03
2019-04-30T07:33:29.427Z,32.93
2019-04-30T07:38:35.788Z,27.37
2019-04-30T07:43:34.126Z,30.77
2019-04-30T07:48:35.414Z,32.40
2019-04-30T07:53:36.887Z,34.53
2019-04-30T07:58:39.113Z,34.30
2019-04-30T08:03:40.940Z,33.73
2019-04-30T08:08:42.761Z,31.97
2019-04-30T08:13:44.755Z,34.93
2019-04-30T08:18:46.429Z,33.90
2019-04-30T08:23:48.975Z,38.47
2019-04-30T08:28:50.696Z,33.83
2019-04-30T08:33:52.155Z,39.57
2019-04-30T08:38:53.573Z,35.23
2019-04-30T08:43:54.836Z,35.57
2019-04-30T08:48:56.242Z,41.80
2019-04-30T08:53:58.707Z,36.33
2019-04-30T08:59:00.333Z,42.20
2019-04-30T09:04:02.307Z,39.53
2019-04-30T09:09:05.594Z,40.37
2019-04-30T09:14:08.565Z,33.30
2019-04-30T09:19:10.418Z,35.67
2019-04-30T09:24:11.659Z,37.60
2019-04-30T09:29:12.960Z,34.27
2019-04-30T09:34:18.028Z,36.93
2019-04-30T09:39:19.889Z,37.77
2019-04-30T09:44:21.858Z,31.20
2019-04-30T09:49:23.533Z,34.67
2019-04-30T09:54:25.246Z,31.03
2019-04-30T09:59:28.965Z,27.97
2019-04-30T10:04:31.233Z,30.67
2019-04-30T10:09:33.195Z,38.20
2019-04-30T10:14:34.439Z,30.83
2019-04-30T10:19:35.862Z,25.63
2019-04-30T10:24:39.206Z,29.20
2019-04-30T10:29:41.231Z,34.00
2019-04-30T10:34:42.636Z,28.43
2019-04-30T10:39:44.534Z,28.17
2019-04-30T10:44:45.763Z,38.23
2019-04-30T10:49:48.675Z,32.17
2019-04-30T10:54:50.110Z,29.47
2019-04-30T10:59:51.856Z,27.37
2019-04-30T11:04:53.372Z,29.63
2019-04-30T11:09:54.673Z,28.33
2019-04-30T11:14:55.897Z,32.33
2019-04-30T11:19:59.195Z,28.73
2019-04-30T11:25:02.760Z,29.50
2019-04-30T11:30:04.759Z,31.67
2019-04-30T11:35:07.462Z,29.03
2019-04-30T11:40:10.183Z,28.12
2019-04-30T11:45:19.452Z,24.67
2019-04-30T11:50:20.866Z,27.17
2019-04-30T11:55:22.129Z,29.60
2019-04-30T12:00:23.533Z,29.12
2019-04-30T12:05:25.008Z,29.32
2019-04-30T12:10:26.504Z,28.40
2019-04-30T12:15:29.112Z,23.83
2019-04-30T12:20:33.590Z,28.77
2019-04-30T12:25:34.711Z,24.87
2019-04-30T12:30:36.045Z,26.40
2019-04-30T12:35:37.312Z,22.85
2019-04-30T12:40:39.006Z,24.43
2019-04-30T12:45:40.293Z,27.45
2019-04-30T12:50:41.903Z,24.87
2019-04-30T12:55:43.385Z,33.25
2019-04-30T13:00:44.760Z,28.50
2019-04-30T13:05:46.477Z,30.55
2019-04-30T13:10:48.267Z,28.30
2019-04-30T13:15:49.938Z,26.23
2019-04-30T13:20:52.286Z,27.62
2019-04-30T13:25:53.861Z,30.00
2019-04-30T13:30:55.654Z,26.93
2019-04-30T13:35:58.429Z,26.37
2019-04-30T13:41:00.530Z,25.90
2019-04-30T13:46:02.001Z,27.07
2019-04-30T13:51:03.242Z,28.30
2019-04-30T13:56:04.639Z,30.90
2019-04-30T14:01:06.091Z,29.90
2019-04-30T14:06:09.118Z,29.83
2019-04-30T14:11:10.464Z,28.63
2019-04-30T14:16:11.893Z,30.95
2019-04-30T14:21:13.381Z,27.90
2019-04-30T14:26:15.009Z,31.53
2019-04-30T14:31:16.285Z,30.67
2019-04-30T14:36:19.351Z,30.87
2019-04-30T14:41:21.351Z,31.60
2019-04-30T14:46:23.489Z,28.77
2019-04-30T14:51:25.219Z,31.23
2019-04-30T14:56:26.450Z,28.73
2019-04-30T15:01:29.297Z,30.57
2019-04-30T15:06:31.241Z,32.53
2019-04-30T15:11:32.714Z,29.43
2019-04-30T15:16:34.235Z,26.80
2019-04-30T15:21:36.109Z,30.23
2019-04-30T15:26:39.335Z,28.77
2019-04-30T15:31:42.625Z,32.57
2019-04-30T15:36:43.977Z,29.80
2019-04-30T15:41:45.781Z,28.93
2019-04-30T15:46:47.474Z,26.93
2019-04-30T15:51:48.713Z,26.43
2019-04-30T15:56:50.140Z,27.17
2019-04-30T16:01:51.722Z,28.63
2019-04-30T16:06:53.195Z,30.23
2019-04-30T16:11:54.557Z,30.03
2019-04-30T16:16:56.360Z,27.23
2019-04-30T16:21:57.596Z,26.20
2019-04-30T16:26:59.496Z,27.50
2019-04-30T16:32:00.966Z,25.90
2019-04-30T16:37:02.321Z,30.63
2019-04-30T16:42:03.710Z,30.07
2019-04-30T16:47:13.728Z,31.10
2019-04-30T16:52:09.188Z,29.87
2019-04-30T16:57:10.714Z,29.73
2019-04-30T17:02:12.231Z,31.93
2019-04-30T17:07:13.645Z,31.97
2019-04-30T17:12:14.992Z,29.83
2019-04-30T17:17:16.695Z,29.70
2019-04-30T17:22:18.084Z,25.60
2019-04-30T17:27:22.121Z,30.60
2019-04-30T17:32:23.316Z,31.87
2019-04-30T17:37:24.564Z,26.33
2019-04-30T17:47:34.421Z,27.70
2019-04-30T17:52:37.230Z,27.60
2019-04-30T17:57:40.312Z,31.30
2019-04-30T18:02:41.824Z,29.80
2019-04-30T18:07:43.297Z,36.03
2019-04-30T18:12:44.708Z,28.83
2019-04-30T18:17:46.116Z,36.43
2019-04-30T18:22:48.896Z,34.57
2019-04-30T18:27:50.401Z,30.80
2019-04-30T18:32:52.528Z,30.27
2019-04-30T18:37:54.026Z,31.70
2019-04-30T18:42:55.849Z,30.20
2019-04-30T18:47:59.451Z,30.30
2019-04-30T18:53:01.044Z,36.77
2019-04-30T18:58:02.887Z,34.40
2019-04-30T19:03:04.186Z,30.80
2019-04-30T19:08:05.566Z,30.47
2019-04-30T19:13:08.805Z,34.03
2019-04-30T19:18:10.220Z,32.10
2019-04-30T19:23:12.179Z,31.17
2019-04-30T19:28:14.580Z,32.03
2019-04-30T19:33:16.297Z,31.70
2019-04-30T19:38:17.774Z,29.60
2019-04-30T19:43:19.379Z,34.70
2019-04-30T19:48:21.047Z,34.97
2019-04-30T19:53:22.432Z,30.97
2019-04-30T19:58:29.399Z,33.43
2019-04-30T20:03:29.184Z,29.97
2019-04-30T20:08:31.366Z,29.43
2019-04-30T20:13:37.074Z,28.27
2019-04-30T20:18:36.021Z,26.93
2019-04-30T20:23:37.378Z,29.10
2019-04-30T20:28:42.270Z,27.07
2019-04-30T20:33:42.045Z,26.63
2019-04-30T20:38:43.794Z,26.30
2019-04-30T20:43:45.039Z,25.50
2019-04-30T20:48:46.519Z,22.27
2019-04-30T20:53:49.160Z,27.30
2019-04-30T20:58:57.813Z,27.53
2019-04-30T21:03:53.913Z,30.50
2019-04-30T21:08:55.461Z,30.33
2019-04-30T21:13:56.709Z,28.33
2019-04-30T21:18:58.312Z,28.00
2019-04-30T21:23:59.601Z,29.23
2019-04-30T21:29:11.086Z,29.30
2019-04-30T21:34:04.586Z,27.40
2019-04-30T21:39:06.052Z,27.63
2019-04-30T21:44:07.528Z,25.00
2019-04-30T21:49:09.011Z,22.57
2019-04-30T21:54:10.380Z,24.83
2019-04-30T21:59:23.765Z,21.93
2019-04-30T22:04:14.931Z,24.70
2019-04-30T22:09:16.186Z,21.27
2019-04-30T22:14:17.912Z,21.70
2019-04-30T22:19:19.181Z,21.53
2019-04-30T22:24:20.887Z,22.10
2019-04-30T22:29:22.253Z,21.57
2019-04-30T22:34:23.825Z,20.33
2019-04-30T22:39:25.076Z,25.53
2019-04-30T22:44:26.652Z,21.10
2019-04-30T22:49:28.240Z,19.23
2019-04-30T22:54:29.786Z,21.83
2019-04-30T22:59:31.244Z,21.57
2019-04-30T23:04:32.841Z,21.03
2019-04-30T23:09:34.092Z,23.87
2019-04-30T23:14:35.358Z,22.33
2019-04-30T23:19:36.715Z,24.40
2019-04-30T23:24:37.980Z,21.43
2019-04-30T23:29:39.818Z,19.23
2019-04-30T23:34:41.136Z,21.37
2019-04-30T23:39:42.393Z,21.83
2019-04-30T23:44:43.938Z,23.37
2019-04-30T23:49:45.176Z,20.33
2019-04-30T23:54:46.705Z,21.57
2019-04-30T23:59:47.932Z,20.47
